Terminal Aerodrome Forecast
Issued by NWS Greer, SC

Home | Current Version | Previous Version | Text Only | Print | Product List | Glossary On
Versions: 1 2 3 4 5 6 7 8 9 10 11 12 13 14
899
FTUS42 KGSP 171128
TAFGSP
TAF
KGSP 171128Z 1712/1812 02005KT P6SM SKC
     FM171500 05009KT P6SM SKC
     FM180000 02003KT P6SM SKC=

USA.gov is the U.S. government's official web portal to all federal, state and local government web resources and services.